sensor_id;sensor_type;location;lat;lon;timestamp;P1;durP1;ratioP1;P2;durP2;ratioP2
23722;SDS011;12042;52.136;5.584;2022-07-18T05:09:33;8.27;;;5.60;;
23722;SDS011;12042;52.136;5.584;2022-07-18T05:11:59;8.65;;;5.47;;
23722;SDS011;12042;52.136;5.584;2022-07-18T05:14:26;8.32;;;5.25;;
23722;SDS011;12042;52.136;5.584;2022-07-18T05:16:51;9.68;;;5.70;;
23722;SDS011;12042;52.136;5.584;2022-07-18T05:19:17;7.40;;;5.88;;
23722;SDS011;12042;52.136;5.584;2022-07-18T05:21:43;5.85;;;5.30;;
23722;SDS011;12042;52.136;5.584;2022-07-18T05:24:09;7.93;;;5.47;;
23722;SDS011;12042;52.136;5.584;2022-07-18T05:26:35;8.65;;;5.80;;
23722;SDS011;12042;52.136;5.584;2022-07-18T05:29:01;7.63;;;5.93;;
23722;SDS011;12042;52.136;5.584;2022-07-18T05:31:26;8.77;;;5.97;;
23722;SDS011;12042;52.136;5.584;2022-07-18T05:33:52;8.10;;;5.43;;
23722;SDS011;12042;52.136;5.584;2022-07-18T05:36:18;7.40;;;5.88;;
23722;SDS011;12042;52.136;5.584;2022-07-18T05:38:43;8.55;;;6.13;;
23722;SDS011;12042;52.136;5.584;2022-07-18T05:41:09;9.27;;;5.78;;
23722;SDS011;12042;52.136;5.584;2022-07-18T05:43:34;8.48;;;5.65;;
23722;SDS011;12042;52.136;5.584;2022-07-18T05:46:00;13.80;;;5.93;;
23722;SDS011;12042;52.136;5.584;2022-07-18T05:48:26;12.50;;;6.93;;
23722;SDS011;12042;52.136;5.584;2022-07-18T05:50:51;14.65;;;6.30;;
23722;SDS011;12042;52.136;5.584;2022-07-18T05:53:17;17.10;;;6.20;;
23722;SDS011;12042;52.136;5.584;2022-07-18T05:55:42;15.32;;;5.70;;
23722;SDS011;12042;52.136;5.584;2022-07-18T05:58:08;12.05;;;5.32;;
23722;SDS011;12042;52.136;5.584;2022-07-18T06:00:34;15.32;;;5.68;;
23722;SDS011;12042;52.136;5.584;2022-07-18T06:03:00;8.15;;;4.80;;
23722;SDS011;12042;52.136;5.584;2022-07-18T06:05:25;8.73;;;5.57;;
23722;SDS011;12042;52.136;5.584;2022-07-18T06:07:52;7.43;;;5.60;;
23722;SDS011;12042;52.136;5.584;2022-07-18T06:10:19;5.32;;;4.85;;
23722;SDS011;12042;52.136;5.584;2022-07-18T06:12:45;8.80;;;4.80;;
23722;SDS011;12042;52.136;5.584;2022-07-18T06:15:11;9.52;;;4.50;;
23722;SDS011;12042;52.136;5.584;2022-07-18T06:17:38;8.60;;;5.43;;
23722;SDS011;12042;52.136;5.584;2022-07-18T06:20:04;10.13;;;4.88;;
23722;SDS011;12042;52.136;5.584;2022-07-18T06:22:30;5.60;;;4.68;;
23722;SDS011;12042;52.136;5.584;2022-07-18T06:24:56;6.85;;;4.70;;
23722;SDS011;12042;52.136;5.584;2022-07-18T06:27:21;6.85;;;4.55;;
23722;SDS011;12042;52.136;5.584;2022-07-18T06:29:47;6.20;;;4.60;;
23722;SDS011;12042;52.136;5.584;2022-07-18T06:32:13;9.50;;;4.82;;
23722;SDS011;12042;52.136;5.584;2022-07-18T06:34:38;6.43;;;4.65;;
23722;SDS011;12042;52.136;5.584;2022-07-18T06:37:04;7.28;;;4.70;;
23722;SDS011;12042;52.136;5.584;2022-07-18T06:39:29;7.72;;;4.80;;
23722;SDS011;12042;52.136;5.584;2022-07-18T06:41:55;11.38;;;5.10;;
23722;SDS011;12042;52.136;5.584;2022-07-18T06:44:20;14.07;;;4.95;;
23722;SDS011;12042;52.136;5.584;2022-07-18T06:46:46;8.57;;;4.95;;
23722;SDS011;12042;52.136;5.584;2022-07-18T06:49:11;6.60;;;4.50;;
23722;SDS011;12042;52.136;5.584;2022-07-18T06:51:37;4.72;;;4.30;;
23722;SDS011;12042;52.136;5.584;2022-07-18T06:54:03;8.48;;;3.88;;
23722;SDS011;12042;52.136;5.584;2022-07-18T06:56:28;8.95;;;3.90;;
23722;SDS011;12042;52.136;5.584;2022-07-18T06:58:54;9.88;;;3.90;;
23722;SDS011;12042;52.136;5.584;2022-07-18T07:01:20;6.55;;;4.03;;
23722;SDS011;12042;52.136;5.584;2022-07-18T07:03:46;9.68;;;3.97;;
23722;SDS011;12042;52.136;5.584;2022-07-18T07:06:12;7.97;;;3.60;;
23722;SDS011;12042;52.136;5.584;2022-07-18T07:08:38;10.23;;;4.15;;
23722;SDS011;12042;52.136;5.584;2022-07-18T07:11:03;6.03;;;3.75;;
23722;SDS011;12042;52.136;5.584;2022-07-18T07:13:29;10.43;;;4.03;;
23722;SDS011;12042;52.136;5.584;2022-07-18T07:15:55;10.10;;;4.20;;
23722;SDS011;12042;52.136;5.584;2022-07-18T07:18:21;9.80;;;3.85;;
23722;SDS011;12042;52.136;5.584;2022-07-18T07:20:46;10.52;;;3.83;;
23722;SDS011;12042;52.136;5.584;2022-07-18T07:23:12;7.68;;;3.88;;
23722;SDS011;12042;52.136;5.584;2022-07-18T07:25:38;6.90;;;4.15;;
23722;SDS011;12042;52.136;5.584;2022-07-18T07:28:05;6.85;;;3.50;;
23722;SDS011;12042;52.136;5.584;2022-07-18T07:30:31;7.38;;;4.05;;
23722;SDS011;12042;52.136;5.584;2022-07-18T07:32:58;11.75;;;4.03;;
23722;SDS011;12042;52.136;5.584;2022-07-18T07:35:25;7.57;;;3.80;;
23722;SDS011;12042;52.136;5.584;2022-07-18T07:37:52;7.55;;;3.67;;
23722;SDS011;12042;52.136;5.584;2022-07-18T07:40:18;4.30;;;3.45;;
23722;SDS011;12042;52.136;5.584;2022-07-18T07:42:45;7.75;;;3.10;;
23722;SDS011;12042;52.136;5.584;2022-07-18T07:45:11;6.28;;;3.00;;
23722;SDS011;12042;52.136;5.584;2022-07-18T07:47:38;6.43;;;2.97;;
23722;SDS011;12042;52.136;5.584;2022-07-18T07:50:05;5.57;;;3.17;;
23722;SDS011;12042;52.136;5.584;2022-07-18T07:52:32;8.88;;;2.50;;
23722;SDS011;12042;52.136;5.584;2022-07-18T07:54:58;7.68;;;2.33;;
23722;SDS011;12042;52.136;5.584;2022-07-18T07:57:24;4.40;;;2.13;;
23722;SDS011;12042;52.136;5.584;2022-07-18T07:59:50;5.10;;;1.83;;
23722;SDS011;12042;52.136;5.584;2022-07-18T08:02:17;4.95;;;2.00;;
23722;SDS011;12042;52.136;5.584;2022-07-18T08:04:43;6.68;;;2.38;;
23722;SDS011;12042;52.136;5.584;2022-07-18T08:07:09;5.22;;;2.08;;
23722;SDS011;12042;52.136;5.584;2022-07-18T08:09:35;8.13;;;2.35;;
23722;SDS011;12042;52.136;5.584;2022-07-18T08:12:00;5.15;;;2.20;;
23722;SDS011;12042;52.136;5.584;2022-07-18T08:14:26;3.33;;;2.35;;
23722;SDS011;12042;52.136;5.584;2022-07-18T08:16:51;7.15;;;2.55;;
23722;SDS011;12042;52.136;5.584;2022-07-18T08:19:17;5.40;;;2.47;;
23722;SDS011;12042;52.136;5.584;2022-07-18T08:21:43;4.82;;;1.90;;
23722;SDS011;12042;52.136;5.584;2022-07-18T08:24:08;7.53;;;2.53;;
23722;SDS011;12042;52.136;5.584;2022-07-18T08:26:34;10.27;;;2.90;;
23722;SDS011;12042;52.136;5.584;2022-07-18T08:29:03;6.13;;;2.38;;
23722;SDS011;12042;52.136;5.584;2022-07-18T08:31:29;6.15;;;2.10;;
23722;SDS011;12042;52.136;5.584;2022-07-18T08:33:55;4.80;;;2.58;;
23722;SDS011;12042;52.136;5.584;2022-07-18T08:36:21;4.20;;;2.38;;
23722;SDS011;12042;52.136;5.584;2022-07-18T08:38:46;6.35;;;2.70;;
23722;SDS011;12042;52.136;5.584;2022-07-18T08:41:12;2.88;;;2.10;;
23722;SDS011;12042;52.136;5.584;2022-07-18T08:43:38;5.30;;;2.28;;
23722;SDS011;12042;52.136;5.584;2022-07-18T08:46:05;3.13;;;1.80;;
23722;SDS011;12042;52.136;5.584;2022-07-18T08:48:31;4.43;;;2.78;;
23722;SDS011;12042;52.136;5.584;2022-07-18T08:50:58;4.70;;;2.30;;
23722;SDS011;12042;52.136;5.584;2022-07-18T08:53:25;8.32;;;2.17;;
23722;SDS011;12042;52.136;5.584;2022-07-18T08:55:51;4.13;;;2.10;;
23722;SDS011;12042;52.136;5.584;2022-07-18T08:58:17;2.92;;;2.10;;
23722;SDS011;12042;52.136;5.584;2022-07-18T09:00:43;3.33;;;1.90;;
23722;SDS011;12042;52.136;5.584;2022-07-18T09:03:10;3.60;;;1.90;;
23722;SDS011;12042;52.136;5.584;2022-07-18T09:05:36;6.35;;;1.90;;
23722;SDS011;12042;52.136;5.584;2022-07-18T09:10:42;4.15;;;1.67;;
23722;SDS011;12042;52.136;5.584;2022-07-18T09:13:20;3.47;;;1.83;;
23722;SDS011;12042;52.136;5.584;2022-07-18T09:18:32;2.75;;;1.77;;
23722;SDS011;12042;52.136;5.584;2022-07-18T09:21:08;4.40;;;1.80;;
23722;SDS011;12042;52.136;5.584;2022-07-18T09:23:38;3.80;;;1.90;;
23722;SDS011;12042;52.136;5.584;2022-07-18T09:26:05;5.88;;;1.58;;
23722;SDS011;12042;52.136;5.584;2022-07-18T09:29:05;4.13;;;1.70;;
23722;SDS011;12042;52.136;5.584;2022-07-18T09:31:24;3.63;;;1.83;;
23722;SDS011;12042;52.136;5.584;2022-07-18T09:33:59;2.58;;;1.60;;
23722;SDS011;12042;52.136;5.584;2022-07-18T09:36:26;3.42;;;1.58;;
23722;SDS011;12042;52.136;5.584;2022-07-18T09:38:53;2.97;;;2.00;;
23722;SDS011;12042;52.136;5.584;2022-07-18T09:41:25;5.22;;;1.80;;
23722;SDS011;12042;52.136;5.584;2022-07-18T09:43:55;4.35;;;1.65;;
23722;SDS011;12042;52.136;5.584;2022-07-18T09:46:21;5.57;;;1.52;;
23722;SDS011;12042;52.136;5.584;2022-07-18T09:48:47;2.40;;;1.63;;
23722;SDS011;12042;52.136;5.584;2022-07-18T09:51:32;2.45;;;1.70;;
23722;SDS011;12042;52.136;5.584;2022-07-18T09:53:58;1.88;;;1.50;;
23722;SDS011;12042;52.136;5.584;2022-07-18T09:56:26;6.35;;;2.00;;
23722;SDS011;12042;52.136;5.584;2022-07-18T09:58:53;4.03;;;1.90;;
23722;SDS011;12042;52.136;5.584;2022-07-18T10:01:20;5.55;;;1.92;;
23722;SDS011;12042;52.136;5.584;2022-07-18T10:03:46;3.58;;;2.40;;
23722;SDS011;12042;52.136;5.584;2022-07-18T10:06:14;5.32;;;1.73;;
23722;SDS011;12042;52.136;5.584;2022-07-18T10:08:40;2.75;;;2.00;;
23722;SDS011;12042;52.136;5.584;2022-07-18T10:11:07;2.85;;;1.80;;
23722;SDS011;12042;52.136;5.584;2022-07-18T10:13:34;8.80;;;2.83;;
23722;SDS011;12042;52.136;5.584;2022-07-18T10:16:01;3.28;;;1.80;;
23722;SDS011;12042;52.136;5.584;2022-07-18T10:18:28;4.03;;;2.30;;
23722;SDS011;12042;52.136;5.584;2022-07-18T10:23:39;5.18;;;1.67;;
23722;SDS011;12042;52.136;5.584;2022-07-18T10:26:14;1.45;;;1.35;;
23722;SDS011;12042;52.136;5.584;2022-07-18T10:31:23;5.88;;;1.55;;
23722;SDS011;12042;52.136;5.584;2022-07-18T10:33:49;2.22;;;1.30;;
23722;SDS011;12042;52.136;5.584;2022-07-18T10:36:16;3.58;;;1.60;;
23722;SDS011;12042;52.136;5.584;2022-07-18T10:55:26;4.60;;;1.77;;
23722;SDS011;12042;52.136;5.584;2022-07-18T11:03:09;3.25;;;1.85;;
23722;SDS011;12042;52.136;5.584;2022-07-18T11:05:42;2.10;;;1.90;;
23722;SDS011;12042;52.136;5.584;2022-07-18T11:18:32;2.38;;;2.17;;
23722;SDS011;12042;52.136;5.584;2022-07-18T11:21:04;4.35;;;2.00;;
23722;SDS011;12042;52.136;5.584;2022-07-18T11:23:47;4.10;;;2.47;;
23722;SDS011;12042;52.136;5.584;2022-07-18T11:26:15;2.58;;;2.40;;
23722;SDS011;12042;52.136;5.584;2022-07-18T11:28:42;6.38;;;3.35;;
23722;SDS011;12042;52.136;5.584;2022-07-18T11:31:09;3.15;;;2.33;;
23722;SDS011;12042;52.136;5.584;2022-07-18T11:33:46;4.32;;;2.45;;
23722;SDS011;12042;52.136;5.584;2022-07-18T11:36:15;5.03;;;2.78;;
23722;SDS011;12042;52.136;5.584;2022-07-18T11:38:47;3.90;;;3.17;;
23722;SDS011;12042;52.136;5.584;2022-07-18T11:41:14;4.43;;;2.30;;
23722;SDS011;12042;52.136;5.584;2022-07-18T11:43:40;2.30;;;2.05;;
23722;SDS011;12042;52.136;5.584;2022-07-18T11:46:08;4.93;;;2.75;;
23722;SDS011;12042;52.136;5.584;2022-07-18T11:48:36;4.85;;;2.28;;
23722;SDS011;12042;52.136;5.584;2022-07-18T11:51:12;4.00;;;2.63;;
23722;SDS011;12042;52.136;5.584;2022-07-18T11:53:58;5.32;;;2.08;;
23722;SDS011;12042;52.136;5.584;2022-07-18T11:56:23;3.30;;;2.03;;
23722;SDS011;12042;52.136;5.584;2022-07-18T11:58:49;5.35;;;1.92;;
23722;SDS011;12042;52.136;5.584;2022-07-18T12:01:15;2.40;;;1.65;;
23722;SDS011;12042;52.136;5.584;2022-07-18T12:03:45;3.17;;;1.90;;
23722;SDS011;12042;52.136;5.584;2022-07-18T12:06:14;3.33;;;1.60;;
23722;SDS011;12042;52.136;5.584;2022-07-18T12:08:43;4.05;;;1.83;;
23722;SDS011;12042;52.136;5.584;2022-07-18T12:11:25;3.17;;;1.70;;
23722;SDS011;12042;52.136;5.584;2022-07-18T12:14:03;2.33;;;1.75;;
23722;SDS011;12042;52.136;5.584;2022-07-18T12:16:43;5.15;;;1.85;;
23722;SDS011;12042;52.136;5.584;2022-07-18T12:19:17;2.33;;;1.40;;
23722;SDS011;12042;52.136;5.584;2022-07-18T12:21:52;1.85;;;1.65;;
23722;SDS011;12042;52.136;5.584;2022-07-18T12:24:26;4.47;;;1.98;;
23722;SDS011;12042;52.136;5.584;2022-07-18T12:32:22;1.60;;;1.30;;
23722;SDS011;12042;52.136;5.584;2022-07-18T12:37:24;3.25;;;1.70;;
23722;SDS011;12042;52.136;5.584;2022-07-18T12:39:58;1.95;;;1.48;;
23722;SDS011;12042;52.136;5.584;2022-07-18T12:42:38;2.10;;;1.50;;
23722;SDS011;12042;52.136;5.584;2022-07-18T12:45:05;1.70;;;1.60;;
23722;SDS011;12042;52.136;5.584;2022-07-18T12:47:32;4.85;;;1.60;;
23722;SDS011;12042;52.136;5.584;2022-07-18T12:49:58;1.80;;;1.30;;
23722;SDS011;12042;52.136;5.584;2022-07-18T12:52:23;1.88;;;1.60;;
23722;SDS011;12042;52.136;5.584;2022-07-18T12:54:49;2.33;;;1.48;;
23722;SDS011;12042;52.136;5.584;2022-07-18T12:57:15;5.60;;;1.40;;
23722;SDS011;12042;52.136;5.584;2022-07-18T12:59:41;2.45;;;1.60;;
23722;SDS011;12042;52.136;5.584;2022-07-18T13:02:07;4.05;;;1.50;;
23722;SDS011;12042;52.136;5.584;2022-07-18T13:04:33;4.35;;;1.58;;
23722;SDS011;12042;52.136;5.584;2022-07-18T13:06:58;2.35;;;1.70;;
23722;SDS011;12042;52.136;5.584;2022-07-18T13:09:24;3.13;;;1.50;;
23722;SDS011;12042;52.136;5.584;2022-07-18T13:11:49;3.50;;;1.60;;
23722;SDS011;12042;52.136;5.584;2022-07-18T13:14:15;1.92;;;1.70;;
23722;SDS011;12042;52.136;5.584;2022-07-18T13:16:42;1.60;;;1.50;;
23722;SDS011;12042;52.136;5.584;2022-07-18T13:19:10;1.98;;;1.88;;
23722;SDS011;12042;52.136;5.584;2022-07-18T13:21:36;6.50;;;1.80;;
23722;SDS011;12042;52.136;5.584;2022-07-18T13:24:02;2.78;;;1.30;;
23722;SDS011;12042;52.136;5.584;2022-07-18T13:26:28;1.73;;;1.60;;
23722;SDS011;12042;52.136;5.584;2022-07-18T13:28:54;3.92;;;1.90;;
23722;SDS011;12042;52.136;5.584;2022-07-18T13:31:20;3.20;;;1.80;;
23722;SDS011;12042;52.136;5.584;2022-07-18T13:33:45;1.85;;;1.73;;
23722;SDS011;12042;52.136;5.584;2022-07-18T13:36:16;2.83;;;1.80;;
23722;SDS011;12042;52.136;5.584;2022-07-18T13:38:42;1.77;;;1.67;;
23722;SDS011;12042;52.136;5.584;2022-07-18T13:41:08;4.15;;;1.50;;
23722;SDS011;12042;52.136;5.584;2022-07-18T13:43:34;4.05;;;1.95;;
23722;SDS011;12042;52.136;5.584;2022-07-18T13:46:04;2.75;;;1.80;;
23722;SDS011;12042;52.136;5.584;2022-07-18T13:48:30;1.98;;;1.77;;
23722;SDS011;12042;52.136;5.584;2022-07-18T13:50:56;2.58;;;2.38;;
23722;SDS011;12042;52.136;5.584;2022-07-18T13:53:21;4.20;;;1.88;;
23722;SDS011;12042;52.136;5.584;2022-07-18T13:55:47;2.72;;;1.70;;
23722;SDS011;12042;52.136;5.584;2022-07-18T13:58:12;1.75;;;1.65;;
23722;SDS011;12042;52.136;5.584;2022-07-18T14:00:38;3.03;;;1.50;;
23722;SDS011;12042;52.136;5.584;2022-07-18T14:03:04;1.70;;;1.60;;
23722;SDS011;12042;52.136;5.584;2022-07-18T14:05:30;2.83;;;1.58;;
23722;SDS011;12042;52.136;5.584;2022-07-18T14:07:56;2.03;;;1.92;;
23722;SDS011;12042;52.136;5.584;2022-07-18T14:10:22;3.40;;;1.80;;
23722;SDS011;12042;52.136;5.584;2022-07-18T14:12:48;2.03;;;1.80;;
23722;SDS011;12042;52.136;5.584;2022-07-18T14:15:13;1.80;;;1.70;;
23722;SDS011;12042;52.136;5.584;2022-07-18T14:17:39;1.90;;;1.70;;
23722;SDS011;12042;52.136;5.584;2022-07-18T14:20:05;1.75;;;1.65;;
23722;SDS011;12042;52.136;5.584;2022-07-18T14:22:32;3.67;;;1.90;;
23722;SDS011;12042;52.136;5.584;2022-07-18T14:25:00;1.80;;;1.70;;
23722;SDS011;12042;52.136;5.584;2022-07-18T14:27:25;1.95;;;1.55;;
23722;SDS011;12042;52.136;5.584;2022-07-18T14:29:51;2.13;;;1.70;;
23722;SDS011;12042;52.136;5.584;2022-07-18T14:32:17;1.85;;;1.75;;
23722;SDS011;12042;52.136;5.584;2022-07-18T14:34:42;2.13;;;1.45;;
23722;SDS011;12042;52.136;5.584;2022-07-18T14:37:08;3.78;;;1.70;;
23722;SDS011;12042;52.136;5.584;2022-07-18T14:39:33;1.88;;;1.30;;
23722;SDS011;12042;52.136;5.584;2022-07-18T14:41:59;3.25;;;1.30;;
23722;SDS011;12042;52.136;5.584;2022-07-18T14:44:25;1.30;;;1.20;;
23722;SDS011;12042;52.136;5.584;2022-07-18T14:46:52;2.47;;;1.48;;
23722;SDS011;12042;52.136;5.584;2022-07-18T14:49:17;3.28;;;1.48;;
23722;SDS011;12042;52.136;5.584;2022-07-18T14:51:43;2.63;;;1.50;;
23722;SDS011;12042;52.136;5.584;2022-07-18T14:54:08;2.15;;;1.58;;
23722;SDS011;12042;52.136;5.584;2022-07-18T14:56:36;2.75;;;1.50;;
23722;SDS011;12042;52.136;5.584;2022-07-18T14:59:02;2.83;;;1.55;;
23722;SDS011;12042;52.136;5.584;2022-07-18T15:01:28;3.20;;;1.52;;
23722;SDS011;12042;52.136;5.584;2022-07-18T15:03:56;1.80;;;1.60;;
23722;SDS011;12042;52.136;5.584;2022-07-18T15:06:22;7.35;;;1.80;;
23722;SDS011;12042;52.136;5.584;2022-07-18T15:08:48;1.85;;;1.50;;
23722;SDS011;12042;52.136;5.584;2022-07-18T15:11:13;2.20;;;1.80;;
23722;SDS011;12042;52.136;5.584;2022-07-18T15:13:43;1.83;;;1.50;;
23722;SDS011;12042;52.136;5.584;2022-07-18T15:16:09;5.07;;;1.77;;
23722;SDS011;12042;52.136;5.584;2022-07-18T15:18:34;3.30;;;1.50;;
23722;SDS011;12042;52.136;5.584;2022-07-18T15:21:00;3.05;;;1.58;;
23722;SDS011;12042;52.136;5.584;2022-07-18T15:23:26;3.85;;;1.58;;
23722;SDS011;12042;52.136;5.584;2022-07-18T15:25:51;2.28;;;1.75;;
23722;SDS011;12042;52.136;5.584;2022-07-18T15:28:17;3.42;;;1.60;;
23722;SDS011;12042;52.136;5.584;2022-07-18T15:30:42;1.70;;;1.60;;
23722;SDS011;12042;52.136;5.584;2022-07-18T15:33:08;2.90;;;1.90;;
23722;SDS011;12042;52.136;5.584;2022-07-18T15:35:33;1.95;;;1.80;;
23722;SDS011;12042;52.136;5.584;2022-07-18T15:37:59;3.42;;;1.50;;
23722;SDS011;12042;52.136;5.584;2022-07-18T15:40:24;2.60;;;1.70;;
23722;SDS011;12042;52.136;5.584;2022-07-18T15:42:51;2.08;;;1.60;;
23722;SDS011;12042;52.136;5.584;2022-07-18T15:45:16;2.05;;;1.52;;
23722;SDS011;12042;52.136;5.584;2022-07-18T15:47:42;3.03;;;1.50;;
23722;SDS011;12042;52.136;5.584;2022-07-18T15:50:08;2.72;;;1.48;;
23722;SDS011;12042;52.136;5.584;2022-07-18T15:52:34;2.03;;;1.52;;
23722;SDS011;12042;52.136;5.584;2022-07-18T15:55:02;2.55;;;1.10;;
23722;SDS011;12042;52.136;5.584;2022-07-18T15:57:28;1.50;;;1.40;;
23722;SDS011;12042;52.136;5.584;2022-07-18T15:59:54;2.05;;;1.77;;
23722;SDS011;12042;52.136;5.584;2022-07-18T16:02:19;2.35;;;1.50;;
23722;SDS011;12042;52.136;5.584;2022-07-18T16:04:45;2.55;;;1.40;;
23722;SDS011;12042;52.136;5.584;2022-07-18T16:07:11;2.58;;;1.40;;
23722;SDS011;12042;52.136;5.584;2022-07-18T16:09:36;1.83;;;1.50;;
23722;SDS011;12042;52.136;5.584;2022-07-18T16:12:03;1.70;;;1.50;;
23722;SDS011;12042;52.136;5.584;2022-07-18T16:14:31;3.03;;;1.92;;
23722;SDS011;12042;52.136;5.584;2022-07-18T16:16:57;3.88;;;1.88;;
23722;SDS011;12042;52.136;5.584;2022-07-18T16:19:22;2.30;;;1.45;;
23722;SDS011;12042;52.136;5.584;2022-07-18T16:21:48;2.25;;;1.50;;
23722;SDS011;12042;52.136;5.584;2022-07-18T16:24:13;2.70;;;1.50;;
23722;SDS011;12042;52.136;5.584;2022-07-18T16:26:39;1.70;;;1.60;;
23722;SDS011;12042;52.136;5.584;2022-07-18T16:29:05;2.80;;;2.05;;
23722;SDS011;12042;52.136;5.584;2022-07-18T16:31:30;1.63;;;1.52;;
23722;SDS011;12042;52.136;5.584;2022-07-18T16:33:56;2.55;;;1.90;;
23722;SDS011;12042;52.136;5.584;2022-07-18T16:36:22;3.53;;;1.50;;
23722;SDS011;12042;52.136;5.584;2022-07-18T16:38:48;1.73;;;1.63;;
23722;SDS011;12042;52.136;5.584;2022-07-18T16:41:13;4.75;;;1.55;;
23722;SDS011;12042;52.136;5.584;2022-07-18T16:43:39;3.90;;;1.85;;
23722;SDS011;12042;52.136;5.584;2022-07-18T16:46:06;1.70;;;1.60;;
23722;SDS011;12042;52.136;5.584;2022-07-18T16:48:32;1.88;;;1.45;;
23722;SDS011;12042;52.136;5.584;2022-07-18T16:50:58;1.70;;;1.60;;
23722;SDS011;12042;52.136;5.584;2022-07-18T16:53:25;1.80;;;1.50;;
23722;SDS011;12042;52.136;5.584;2022-07-18T16:55:52;3.80;;;1.70;;
23722;SDS011;12042;52.136;5.584;2022-07-18T16:58:18;1.88;;;1.67;;
23722;SDS011;12042;52.136;5.584;2022-07-18T17:00:43;2.20;;;1.58;;
23722;SDS011;12042;52.136;5.584;2022-07-18T17:03:09;1.88;;;1.50;;
23722;SDS011;12042;52.136;5.584;2022-07-18T17:05:35;3.30;;;1.88;;
23722;SDS011;12042;52.136;5.584;2022-07-18T17:08:01;2.65;;;1.60;;
23722;SDS011;12042;52.136;5.584;2022-07-18T17:10:28;3.63;;;1.95;;
23722;SDS011;12042;52.136;5.584;2022-07-18T17:12:54;2.50;;;1.67;;
23722;SDS011;12042;52.136;5.584;2022-07-18T17:15:20;3.08;;;1.70;;
23722;SDS011;12042;52.136;5.584;2022-07-18T17:17:46;1.92;;;1.60;;
23722;SDS011;12042;52.136;5.584;2022-07-18T17:20:12;1.70;;;1.60;;
23722;SDS011;12042;52.136;5.584;2022-07-18T17:22:39;2.08;;;1.80;;
23722;SDS011;12042;52.136;5.584;2022-07-18T17:25:05;2.22;;;1.80;;
23722;SDS011;12042;52.136;5.584;2022-07-18T17:27:32;2.67;;;1.73;;
23722;SDS011;12042;52.136;5.584;2022-07-18T17:29:58;2.35;;;1.80;;
23722;SDS011;12042;52.136;5.584;2022-07-18T17:32:24;2.00;;;1.90;;
23722;SDS011;12042;52.136;5.584;2022-07-18T17:34:51;2.58;;;1.90;;
23722;SDS011;12042;52.136;5.584;2022-07-18T17:37:17;2.40;;;1.60;;
23722;SDS011;12042;52.136;5.584;2022-07-18T17:39:45;3.15;;;1.77;;
23722;SDS011;12042;52.136;5.584;2022-07-18T17:42:14;3.50;;;1.50;;
23722;SDS011;12042;52.136;5.584;2022-07-18T17:44:41;3.08;;;1.48;;
23722;SDS011;12042;52.136;5.584;2022-07-18T17:47:06;3.47;;;1.60;;
23722;SDS011;12042;52.136;5.584;2022-07-18T17:49:32;3.65;;;1.95;;
23722;SDS011;12042;52.136;5.584;2022-07-18T17:51:58;1.83;;;1.73;;
23722;SDS011;12042;52.136;5.584;2022-07-18T17:54:24;5.22;;;1.80;;
23722;SDS011;12042;52.136;5.584;2022-07-18T17:56:50;1.92;;;1.70;;
23722;SDS011;12042;52.136;5.584;2022-07-18T17:59:16;4.45;;;1.70;;
23722;SDS011;12042;52.136;5.584;2022-07-18T18:01:42;3.90;;;1.83;;
23722;SDS011;12042;52.136;5.584;2022-07-18T18:04:07;3.80;;;1.85;;
23722;SDS011;12042;52.136;5.584;2022-07-18T18:06:33;2.78;;;1.63;;
23722;SDS011;12042;52.136;5.584;2022-07-18T18:08:58;2.42;;;1.85;;
23722;SDS011;12042;52.136;5.584;2022-07-18T18:11:24;1.90;;;1.80;;
23722;SDS011;12042;52.136;5.584;2022-07-18T18:13:50;1.88;;;1.67;;
23722;SDS011;12042;52.136;5.584;2022-07-18T18:16:16;2.53;;;1.50;;
23722;SDS011;12042;52.136;5.584;2022-07-18T18:18:41;5.05;;;1.98;;
23722;SDS011;12042;52.136;5.584;2022-07-18T18:21:07;3.85;;;1.90;;
23722;SDS011;12042;52.136;5.584;2022-07-18T18:23:33;3.38;;;1.90;;
23722;SDS011;12042;52.136;5.584;2022-07-18T18:25:59;1.70;;;1.60;;
23722;SDS011;12042;52.136;5.584;2022-07-18T18:28:25;2.17;;;1.90;;
23722;SDS011;12042;52.136;5.584;2022-07-18T18:30:52;3.97;;;1.73;;
23722;SDS011;12042;52.136;5.584;2022-07-18T18:33:18;1.70;;;1.60;;
23722;SDS011;12042;52.136;5.584;2022-07-18T18:35:44;1.92;;;1.80;;
23722;SDS011;12042;52.136;5.584;2022-07-18T18:38:17;4.20;;;1.80;;
23722;SDS011;12042;52.136;5.584;2022-07-18T18:40:42;4.03;;;1.95;;
23722;SDS011;12042;52.136;5.584;2022-07-18T18:43:09;2.13;;;1.80;;
23722;SDS011;12042;52.136;5.584;2022-07-18T18:48:44;4.82;;;1.88;;
23722;SDS011;12042;52.136;5.584;2022-07-18T18:51:12;1.58;;;1.45;;
23722;SDS011;12042;52.136;5.584;2022-07-18T18:53:41;2.10;;;1.92;;
23722;SDS011;12042;52.136;5.584;2022-07-18T18:56:06;2.45;;;2.25;;
23722;SDS011;12042;52.136;5.584;2022-07-18T18:58:32;2.75;;;1.98;;
23722;SDS011;12042;52.136;5.584;2022-07-18T19:00:58;4.88;;;2.00;;
23722;SDS011;12042;52.136;5.584;2022-07-18T19:03:23;7.60;;;2.22;;
23722;SDS011;12042;52.136;5.584;2022-07-18T19:05:49;2.75;;;2.20;;
23722;SDS011;12042;52.136;5.584;2022-07-18T19:08:15;5.35;;;1.95;;
23722;SDS011;12042;52.136;5.584;2022-07-18T19:10:43;3.90;;;2.00;;
23722;SDS011;12042;52.136;5.584;2022-07-18T19:13:10;3.88;;;2.05;;
23722;SDS011;12042;52.136;5.584;2022-07-18T19:15:36;2.78;;;1.88;;
23722;SDS011;12042;52.136;5.584;2022-07-18T19:18:01;2.28;;;2.08;;
23722;SDS011;12042;52.136;5.584;2022-07-18T19:20:27;5.30;;;2.10;;
23722;SDS011;12042;52.136;5.584;2022-07-18T19:22:53;2.10;;;1.90;;
23722;SDS011;12042;52.136;5.584;2022-07-18T19:25:18;4.53;;;2.13;;
23722;SDS011;12042;52.136;5.584;2022-07-18T19:27:47;3.38;;;2.35;;
23722;SDS011;12042;52.136;5.584;2022-07-18T19:30:13;4.60;;;2.38;;
23722;SDS011;12042;52.136;5.584;2022-07-18T19:32:38;7.10;;;2.35;;
23722;SDS011;12042;52.136;5.584;2022-07-18T19:35:04;5.43;;;2.60;;
23722;SDS011;12042;52.136;5.584;2022-07-18T19:37:30;2.78;;;2.28;;
23722;SDS011;12042;52.136;5.584;2022-07-18T19:39:56;5.13;;;3.28;;
23722;SDS011;12042;52.136;5.584;2022-07-18T19:42:23;4.05;;;2.70;;
23722;SDS011;12042;52.136;5.584;2022-07-18T19:44:49;5.65;;;2.67;;
23722;SDS011;12042;52.136;5.584;2022-07-18T19:47:14;6.38;;;2.80;;
23722;SDS011;12042;52.136;5.584;2022-07-18T19:49:40;4.50;;;2.50;;
23722;SDS011;12042;52.136;5.584;2022-07-18T19:52:06;8.55;;;2.58;;
23722;SDS011;12042;52.136;5.584;2022-07-18T19:54:36;7.00;;;2.70;;
23722;SDS011;12042;52.136;5.584;2022-07-18T19:57:02;4.20;;;2.50;;
23722;SDS011;12042;52.136;5.584;2022-07-18T19:59:29;5.22;;;2.70;;
23722;SDS011;12042;52.136;5.584;2022-07-18T20:01:54;3.42;;;3.00;;
23722;SDS011;12042;52.136;5.584;2022-07-18T20:04:20;5.30;;;3.53;;
23722;SDS011;12042;52.136;5.584;2022-07-18T20:06:46;5.25;;;3.50;;
23722;SDS011;12042;52.136;5.584;2022-07-18T20:09:11;10.75;;;3.42;;
23722;SDS011;12042;52.136;5.584;2022-07-18T20:11:39;5.78;;;3.33;;
23722;SDS011;12042;52.136;5.584;2022-07-18T20:14:05;9.15;;;3.47;;
23722;SDS011;12042;52.136;5.584;2022-07-18T20:16:30;3.38;;;3.08;;
23722;SDS011;12042;52.136;5.584;2022-07-18T20:18:56;8.98;;;3.47;;
23722;SDS011;12042;52.136;5.584;2022-07-18T20:21:21;11.45;;;4.72;;
23722;SDS011;12042;52.136;5.584;2022-07-18T20:23:47;5.88;;;3.80;;
23722;SDS011;12042;52.136;5.584;2022-07-18T20:26:13;9.48;;;3.70;;
23722;SDS011;12042;52.136;5.584;2022-07-18T20:28:38;8.85;;;3.65;;
23722;SDS011;12042;52.136;5.584;2022-07-18T20:31:04;6.88;;;3.80;;
23722;SDS011;12042;52.136;5.584;2022-07-18T20:33:29;11.30;;;3.78;;
23722;SDS011;12042;52.136;5.584;2022-07-18T20:35:55;11.77;;;6.82;;
23722;SDS011;12042;52.136;5.584;2022-07-18T20:38:20;8.93;;;3.95;;
23722;SDS011;12042;52.136;5.584;2022-07-18T20:40:46;8.57;;;4.30;;
23722;SDS011;12042;52.136;5.584;2022-07-18T20:43:12;5.85;;;3.63;;
